createdAt,value
2022-09-15T00:01:21.641Z,3.80
2022-09-15T00:03:49.911Z,4.03
2022-09-15T00:06:18.315Z,4.10
2022-09-15T00:08:46.230Z,4.10
2022-09-15T00:11:26.183Z,4.40
2022-09-15T00:13:55.593Z,4.43
2022-09-15T00:16:25.707Z,4.13
2022-09-15T00:18:53.812Z,4.50
2022-09-15T00:21:23.810Z,4.10
2022-09-15T00:23:52.328Z,3.58
2022-09-15T00:26:23.161Z,4.30
2022-09-15T00:28:51.888Z,4.13
2022-09-15T00:31:22.824Z,3.95
2022-09-15T00:33:53.291Z,4.03
2022-09-15T00:36:22.641Z,4.22
2022-09-15T00:38:50.729Z,4.55
2022-09-15T00:41:20.760Z,4.18
2022-09-15T00:43:53.661Z,4.15
2022-09-15T00:46:24.749Z,4.25
2022-09-15T00:49:19.073Z,4.07
2022-09-15T00:51:49.653Z,4.10
2022-09-15T00:54:25.207Z,4.63
2022-09-15T00:56:55.385Z,4.90
2022-09-15T00:59:26.224Z,4.35
2022-09-15T01:02:08.245Z,4.68
2022-09-15T01:04:36.088Z,4.90
2022-09-15T01:07:06.683Z,4.82
2022-09-15T01:09:41.940Z,5.00
2022-09-15T01:12:09.744Z,4.80
2022-09-15T01:14:37.543Z,4.50
2022-09-15T01:17:29.973Z,4.78
2022-09-15T01:20:20.360Z,4.60
2022-09-15T01:23:13.819Z,4.60
2022-09-15T01:25:44.183Z,4.78
2022-09-15T01:28:25.619Z,5.07
2022-09-15T01:31:29.693Z,4.90
2022-09-15T01:34:09.047Z,5.27
2022-09-15T01:36:45.766Z,4.13
2022-09-15T01:39:32.078Z,5.25
2022-09-15T01:42:04.137Z,5.25
2022-09-15T01:44:37.928Z,4.97
2022-09-15T01:47:11.829Z,4.55
2022-09-15T01:50:06.298Z,4.95
2022-09-15T01:52:34.326Z,5.18
2022-09-15T01:55:08.036Z,5.00
2022-09-15T01:57:35.847Z,5.05
2022-09-15T02:00:04.427Z,4.85
2022-09-15T02:02:38.219Z,4.68
2022-09-15T02:05:16.754Z,4.90
2022-09-15T02:08:05.549Z,4.88
2022-09-15T02:11:03.598Z,4.50
2022-09-15T02:13:41.546Z,4.53
2022-09-15T02:16:20.113Z,4.50
2022-09-15T02:19:19.821Z,4.90
2022-09-15T02:22:17.966Z,5.15
2022-09-15T02:24:50.632Z,4.72
2022-09-15T02:27:35.714Z,4.55
2022-09-15T02:30:12.711Z,4.68
2022-09-15T02:32:57.221Z,4.72
2022-09-15T02:35:27.199Z,4.88
2022-09-15T02:37:56.424Z,5.18
2022-09-15T02:40:24.438Z,4.88
2022-09-15T02:42:55.284Z,4.88
2022-09-15T02:45:24.903Z,4.78
2022-09-15T02:47:52.738Z,4.60
2022-09-15T02:50:20.816Z,4.38
2022-09-15T02:52:48.533Z,4.80
2022-09-15T02:55:16.805Z,4.13
2022-09-15T02:57:44.583Z,4.00
2022-09-15T03:00:13.652Z,3.80
2022-09-15T03:03:11.359Z,3.58
2022-09-15T03:05:45.805Z,3.95
2022-09-15T03:08:14.216Z,4.15
2022-09-15T03:10:41.939Z,4.03
2022-09-15T03:13:09.691Z,3.72
2022-09-15T03:15:37.532Z,3.83
2022-09-15T03:18:05.671Z,4.45
2022-09-15T03:20:33.966Z,3.58
2022-09-15T03:23:03.498Z,3.80
2022-09-15T03:25:32.489Z,3.95
2022-09-15T03:28:00.301Z,3.65
2022-09-15T03:30:28.171Z,3.85
2022-09-15T03:32:55.856Z,3.63
2022-09-15T03:35:23.578Z,3.70
2022-09-15T03:37:51.361Z,3.97
2022-09-15T03:40:19.183Z,3.90
2022-09-15T03:42:47.709Z,3.30
2022-09-15T03:45:15.582Z,3.83
2022-09-15T03:47:43.350Z,4.05
2022-09-15T03:50:11.129Z,3.92
2022-09-15T03:52:38.823Z,3.95
2022-09-15T03:55:07.063Z,3.80
2022-09-15T03:57:34.880Z,3.40
2022-09-15T04:00:04.840Z,3.70
2022-09-15T04:02:33.134Z,4.25
2022-09-15T04:05:00.893Z,4.85
2022-09-15T04:07:28.572Z,4.28
2022-09-15T04:09:56.724Z,4.45
2022-09-15T04:12:24.623Z,4.22
2022-09-15T04:14:52.410Z,4.50
2022-09-15T04:17:20.282Z,4.47
2022-09-15T04:19:48.021Z,5.15
2022-09-15T04:22:18.000Z,4.43
2022-09-15T04:24:48.172Z,4.38
2022-09-15T04:27:17.472Z,4.05
2022-09-15T04:29:45.371Z,4.30
2022-09-15T04:32:13.212Z,4.55
2022-09-15T04:34:41.688Z,4.47
2022-09-15T04:37:09.464Z,5.30
2022-09-15T04:39:37.176Z,5.45
2022-09-15T04:42:08.009Z,6.72
2022-09-15T04:44:35.804Z,5.00
2022-09-15T04:47:03.662Z,3.80
2022-09-15T04:49:31.868Z,4.25
2022-09-15T04:51:59.838Z,4.53
2022-09-15T04:54:27.825Z,3.70
2022-09-15T04:56:55.633Z,4.60
2022-09-15T04:59:24.066Z,4.45
2022-09-15T05:01:54.741Z,4.38
2022-09-15T05:04:22.620Z,4.43
2022-09-15T05:06:50.413Z,4.18
2022-09-15T05:09:18.243Z,3.72
2022-09-15T05:11:46.024Z,3.60
2022-09-15T05:14:13.785Z,3.92
2022-09-15T05:16:41.615Z,4.05
2022-09-15T05:19:10.708Z,4.65
2022-09-15T05:21:38.703Z,3.92
2022-09-15T05:24:06.815Z,3.60
2022-09-15T05:26:34.576Z,3.30
2022-09-15T05:29:02.408Z,3.58
2022-09-15T05:31:32.439Z,4.13
2022-09-15T05:34:02.878Z,3.30
2022-09-15T05:36:31.059Z,3.70
2022-09-15T05:38:59.306Z,3.88
2022-09-15T05:41:28.534Z,4.00
2022-09-15T05:43:58.405Z,4.55
2022-09-15T05:46:27.559Z,3.72
2022-09-15T05:48:59.146Z,3.67
2022-09-15T05:51:27.207Z,3.85
2022-09-15T05:53:54.966Z,4.43
2022-09-15T05:56:22.745Z,4.20
2022-09-15T05:58:51.060Z,4.60
2022-09-15T06:01:21.241Z,3.53
2022-09-15T06:03:49.896Z,3.90
2022-09-15T06:06:18.119Z,4.00
2022-09-15T06:08:51.900Z,4.38
2022-09-15T06:11:25.801Z,3.97
2022-09-15T06:13:53.548Z,4.43
2022-09-15T06:16:23.254Z,4.32
2022-09-15T06:18:52.833Z,4.65
2022-09-15T06:21:23.663Z,3.88
2022-09-15T06:23:56.710Z,4.25
2022-09-15T06:26:25.589Z,4.30
2022-09-15T06:28:58.743Z,3.75
2022-09-15T06:31:28.587Z,4.37
2022-09-15T06:33:57.897Z,3.80
2022-09-15T06:36:30.778Z,4.70
2022-09-15T06:38:59.744Z,4.60
2022-09-15T06:41:38.291Z,5.00
2022-09-15T06:44:19.635Z,4.88
2022-09-15T06:46:47.645Z,4.55
2022-09-15T06:49:15.881Z,4.88
2022-09-15T06:51:43.676Z,4.75
2022-09-15T06:54:12.053Z,3.83
2022-09-15T06:56:39.967Z,3.00
2022-09-15T06:59:10.223Z,3.35
2022-09-15T07:01:38.072Z,3.13
2022-09-15T07:04:10.128Z,4.03
2022-09-15T07:06:39.662Z,3.45
2022-09-15T07:09:08.122Z,3.00
2022-09-15T07:11:35.895Z,3.03
2022-09-15T07:14:04.146Z,3.17
2022-09-15T07:16:32.116Z,3.60
2022-09-15T07:19:02.111Z,4.22
2022-09-15T07:21:29.912Z,4.05
2022-09-15T07:23:58.378Z,3.92
2022-09-15T07:26:30.535Z,11.10
2022-09-15T07:29:01.153Z,6.28
2022-09-15T07:31:31.354Z,5.43
2022-09-15T07:33:59.852Z,5.68
2022-09-15T07:36:28.760Z,6.20
2022-09-15T07:38:57.033Z,4.97
2022-09-15T07:41:27.372Z,5.10
2022-09-15T07:43:57.699Z,4.95
2022-09-15T07:46:27.661Z,4.72
2022-09-15T07:48:58.719Z,4.90
2022-09-15T07:51:27.020Z,5.00
2022-09-15T07:53:55.239Z,4.97
2022-09-15T07:56:24.761Z,4.65
2022-09-15T07:58:52.934Z,4.38
2022-09-15T08:01:22.634Z,4.00
2022-09-15T08:03:52.369Z,4.80
2022-09-15T08:06:25.990Z,3.55
2022-09-15T08:08:59.280Z,4.28
2022-09-15T08:11:29.292Z,4.18
2022-09-15T08:14:00.497Z,3.53
2022-09-15T08:16:31.040Z,4.10
2022-09-15T08:18:59.281Z,3.90
2022-09-15T08:21:28.444Z,3.35
2022-09-15T08:23:58.701Z,4.25
2022-09-15T08:26:27.984Z,4.47
2022-09-15T08:28:55.802Z,4.57
2022-09-15T08:31:26.622Z,4.10
2022-09-15T08:33:56.160Z,3.72
2022-09-15T08:36:28.663Z,3.35
2022-09-15T08:38:56.852Z,3.03
2022-09-15T08:41:38.430Z,4.00
2022-09-15T08:44:24.053Z,4.22
2022-09-15T08:46:59.123Z,3.97
2022-09-15T08:49:51.562Z,3.03
2022-09-15T08:52:27.012Z,3.00
2022-09-15T08:54:57.938Z,2.85
2022-09-15T08:57:26.291Z,4.40
2022-09-15T08:59:54.930Z,3.78
2022-09-15T09:02:37.957Z,3.05
2022-09-15T09:05:29.905Z,4.32
2022-09-15T09:08:20.865Z,3.05
2022-09-15T09:11:10.049Z,3.70
2022-09-15T09:14:20.530Z,3.95
2022-09-15T09:17:11.297Z,3.30
2022-09-15T09:20:05.156Z,3.70
2022-09-15T09:22:37.756Z,3.38
2022-09-15T09:25:26.086Z,3.08
2022-09-15T09:27:58.449Z,2.80
2022-09-15T09:30:31.335Z,3.13
2022-09-15T09:33:30.445Z,3.67
2022-09-15T09:36:00.318Z,3.17
2022-09-15T09:38:35.546Z,2.88
2022-09-15T09:41:09.329Z,4.03
2022-09-15T09:43:37.194Z,3.72
2022-09-15T09:46:15.192Z,2.75
2022-09-15T09:49:03.295Z,2.90
2022-09-15T09:51:34.585Z,2.88
2022-09-15T09:54:11.924Z,2.28
2022-09-15T09:56:40.529Z,2.83
2022-09-15T09:59:30.791Z,2.33
2022-09-15T10:02:18.378Z,2.38
2022-09-15T10:04:53.238Z,2.58
2022-09-15T10:07:27.111Z,2.45
2022-09-15T10:12:49.026Z,2.40
2022-09-15T10:15:28.559Z,2.53
2022-09-15T10:17:57.293Z,1.92
2022-09-15T10:20:25.837Z,1.90
2022-09-15T10:23:03.124Z,2.47
2022-09-15T10:25:55.018Z,1.73
2022-09-15T10:28:24.262Z,2.28
2022-09-15T10:30:59.410Z,1.50
2022-09-15T10:33:35.271Z,1.80
2022-09-15T10:36:19.854Z,1.65
2022-09-15T10:39:15.560Z,2.00
2022-09-15T10:42:04.610Z,1.85
2022-09-15T10:45:04.572Z,1.50
2022-09-15T10:47:50.533Z,1.48
2022-09-15T10:50:31.365Z,1.90
2022-09-15T10:53:34.051Z,1.52
2022-09-15T10:56:34.707Z,1.33
2022-09-15T10:59:05.467Z,1.52
2022-09-15T11:01:49.581Z,1.83
2022-09-15T11:07:29.124Z,2.43
2022-09-15T11:10:29.556Z,1.80
2022-09-15T11:13:26.050Z,2.88
2022-09-15T11:16:25.720Z,2.00
2022-09-15T11:19:34.248Z,2.38
2022-09-15T11:22:29.555Z,3.08
2022-09-15T11:25:13.711Z,2.80
2022-09-15T11:27:54.692Z,3.17
2022-09-15T11:30:25.745Z,2.90
2022-09-15T11:32:59.858Z,2.58
2022-09-15T11:35:46.021Z,2.55
2022-09-15T11:38:43.234Z,2.50
2022-09-15T11:41:20.196Z,2.80
2022-09-15T11:44:16.055Z,2.38
2022-09-15T11:47:09.811Z,1.75
2022-09-15T11:49:54.895Z,1.50
2022-09-15T11:53:00.923Z,1.55
2022-09-15T11:55:37.739Z,1.60
2022-09-15T11:58:26.451Z,1.83
2022-09-15T12:01:09.365Z,1.30
2022-09-15T12:03:42.832Z,1.60
2022-09-15T12:07:03.460Z,1.80
2022-09-15T12:09:34.340Z,1.63
2022-09-15T12:12:12.721Z,1.70
2022-09-15T12:14:48.663Z,1.50
2022-09-15T12:17:40.905Z,2.38
2022-09-15T12:20:35.407Z,1.70
2022-09-15T12:23:12.873Z,1.98
2022-09-15T12:26:10.775Z,1.40
2022-09-15T12:28:43.504Z,1.52
2022-09-15T12:31:34.676Z,2.00
2022-09-15T12:34:38.601Z,2.50
2022-09-15T12:37:15.356Z,1.58
2022-09-15T12:39:45.389Z,1.33
2022-09-15T12:42:20.940Z,1.67
2022-09-15T12:45:22.794Z,2.00
2022-09-15T12:48:05.404Z,1.70
2022-09-15T12:50:37.588Z,1.42
2022-09-15T12:53:22.248Z,1.50
2022-09-15T12:55:57.534Z,1.70
2022-09-15T12:58:37.096Z,1.40
2022-09-15T13:01:23.018Z,1.50
2022-09-15T13:03:58.478Z,1.45
2022-09-15T13:06:35.912Z,1.38
2022-09-15T13:09:06.527Z,1.40
2022-09-15T13:11:35.003Z,1.50
2022-09-15T13:14:07.063Z,1.50
2022-09-15T13:16:37.884Z,1.45
2022-09-15T13:19:33.804Z,1.52
2022-09-15T13:22:27.494Z,1.35
2022-09-15T13:25:04.565Z,1.73
2022-09-15T13:27:42.919Z,1.70
2022-09-15T13:30:25.521Z,1.63
2022-09-15T13:33:06.805Z,2.60
2022-09-15T13:36:00.765Z,1.70
2022-09-15T13:38:54.345Z,1.90
2022-09-15T13:41:56.999Z,2.20
2022-09-15T13:45:03.244Z,2.00
2022-09-15T13:47:53.070Z,1.83
2022-09-15T13:50:33.430Z,1.75
2022-09-15T13:53:20.877Z,2.72
2022-09-15T13:55:49.058Z,1.85
2022-09-15T14:01:11.691Z,2.40
2022-09-15T14:03:45.769Z,2.63
2022-09-15T14:06:21.110Z,2.22
2022-09-15T14:08:54.144Z,2.15
2022-09-15T14:11:34.940Z,2.88
2022-09-15T14:14:06.267Z,2.05
2022-09-15T14:16:39.607Z,2.28
2022-09-15T14:19:41.745Z,2.22
2022-09-15T14:22:35.945Z,2.50
2022-09-15T14:25:14.564Z,1.58
2022-09-15T14:27:45.799Z,2.42
2022-09-15T14:30:26.515Z,2.47
2022-09-15T14:33:00.489Z,2.42
2022-09-15T14:35:38.389Z,2.00
2022-09-15T14:38:06.383Z,1.90
2022-09-15T14:40:42.361Z,2.05
2022-09-15T14:43:36.354Z,2.08
2022-09-15T14:46:18.123Z,2.17
2022-09-15T14:48:48.848Z,1.05
2022-09-15T14:51:28.668Z,1.70
2022-09-15T14:54:00.406Z,2.60
2022-09-15T14:56:44.163Z,1.90
2022-09-15T14:59:26.546Z,1.55
2022-09-15T15:02:16.329Z,2.03
2022-09-15T15:04:54.959Z,1.83
2022-09-15T15:07:33.349Z,1.90
2022-09-15T15:10:04.562Z,1.95
2022-09-15T15:12:36.671Z,1.80
2022-09-15T15:15:21.167Z,2.20
2022-09-15T15:17:55.364Z,1.73
2022-09-15T15:20:31.478Z,1.63
2022-09-15T15:23:24.966Z,1.50
2022-09-15T15:26:15.664Z,2.27
2022-09-15T15:28:46.257Z,1.33
2022-09-15T15:31:22.771Z,1.50
2022-09-15T15:34:06.601Z,1.92
2022-09-15T15:36:37.987Z,1.52
2022-09-15T15:39:23.145Z,1.05
2022-09-15T15:42:08.510Z,1.05
2022-09-15T15:44:40.280Z,0.82
2022-09-15T15:47:14.834Z,1.65
2022-09-15T15:50:09.369Z,1.25
2022-09-15T15:52:36.106Z,1.25
2022-09-15T15:55:07.121Z,1.65
2022-09-15T15:57:40.031Z,1.40
2022-09-15T16:00:24.452Z,0.93
2022-09-15T16:02:55.551Z,1.73
2022-09-15T16:05:30.739Z,0.70
2022-09-15T16:08:19.807Z,1.10
2022-09-15T16:10:52.860Z,1.50
2022-09-15T16:13:26.390Z,1.23
2022-09-15T16:18:30.933Z,1.40
2022-09-15T16:21:07.570Z,1.42
2022-09-15T16:23:39.099Z,1.58
2022-09-15T16:26:14.681Z,1.60
2022-09-15T16:28:45.332Z,1.70
2022-09-15T16:31:17.066Z,1.40
2022-09-15T16:33:47.833Z,1.30
2022-09-15T16:36:20.519Z,1.65
2022-09-15T16:38:52.531Z,1.25
2022-09-15T16:41:29.374Z,1.13
2022-09-15T16:44:00.184Z,0.93
2022-09-15T16:46:31.064Z,1.50
2022-09-15T16:49:01.673Z,1.23
2022-09-15T16:51:39.511Z,1.85
2022-09-15T16:54:21.282Z,1.25
2022-09-15T16:56:53.950Z,0.75
2022-09-15T16:59:33.271Z,1.67
2022-09-15T17:02:04.205Z,1.63
2022-09-15T17:04:36.566Z,1.25
2022-09-15T17:07:08.820Z,1.40
2022-09-15T17:09:59.242Z,1.17
2022-09-15T17:12:34.246Z,2.38
2022-09-15T17:15:02.329Z,2.05
2022-09-15T17:17:33.807Z,1.73
2022-09-15T17:20:04.644Z,1.05
2022-09-15T17:22:32.772Z,1.45
2022-09-15T17:25:01.400Z,1.23
2022-09-15T17:27:29.916Z,1.20
2022-09-15T17:29:57.930Z,1.33
2022-09-15T17:32:25.903Z,1.10
2022-09-15T17:34:54.516Z,1.35
2022-09-15T17:37:22.947Z,2.05
2022-09-15T17:39:52.743Z,1.35
2022-09-15T17:42:23.614Z,1.30
2022-09-15T17:44:51.544Z,1.63
2022-09-15T17:47:19.483Z,1.60
2022-09-15T17:49:47.311Z,2.78
2022-09-15T17:52:15.172Z,1.30
2022-09-15T17:54:43.312Z,1.42
2022-09-15T17:57:11.262Z,1.48
2022-09-15T17:59:39.250Z,1.25
2022-09-15T18:02:18.053Z,1.52
2022-09-15T18:04:46.649Z,2.05
2022-09-15T18:07:15.705Z,1.63
2022-09-15T18:09:48.656Z,1.90
2022-09-15T18:12:18.347Z,1.45
2022-09-15T18:14:46.417Z,1.10
2022-09-15T18:17:14.809Z,1.90
2022-09-15T18:19:42.867Z,1.30
2022-09-15T18:22:14.359Z,1.30
2022-09-15T18:24:42.385Z,1.65
2022-09-15T18:27:14.791Z,1.50
2022-09-15T18:29:42.835Z,1.30
2022-09-15T18:32:11.719Z,1.30
2022-09-15T18:34:42.384Z,1.67
2022-09-15T18:37:10.315Z,1.83
2022-09-15T18:39:40.513Z,2.03
2022-09-15T18:42:08.371Z,2.10
2022-09-15T18:44:36.289Z,1.80
2022-09-15T18:47:04.120Z,1.67
2022-09-15T18:49:31.974Z,2.47
2022-09-15T18:52:02.401Z,1.98
2022-09-15T18:54:30.325Z,2.05
2022-09-15T18:56:58.365Z,1.80
2022-09-15T18:59:26.406Z,1.73
2022-09-15T19:01:54.479Z,2.00
2022-09-15T19:04:28.409Z,1.52
2022-09-15T19:06:59.807Z,1.58
2022-09-15T19:09:27.674Z,1.85
2022-09-15T19:11:55.706Z,1.65
2022-09-15T19:14:23.630Z,1.50
2022-09-15T19:16:57.997Z,2.47
2022-09-15T19:19:26.760Z,1.55
2022-09-15T19:21:54.597Z,1.83
2022-09-15T19:24:32.060Z,2.15
2022-09-15T19:27:04.814Z,1.95
2022-09-15T19:29:36.264Z,2.17
2022-09-15T19:32:11.181Z,2.08
2022-09-15T19:34:42.500Z,1.63
2022-09-15T19:37:18.807Z,2.28
2022-09-15T19:39:52.287Z,2.40
2022-09-15T19:42:22.294Z,2.05
2022-09-15T19:44:51.398Z,2.00
2022-09-15T19:47:20.004Z,2.00
2022-09-15T19:49:55.834Z,2.05
2022-09-15T19:52:28.788Z,1.85
2022-09-15T19:54:56.987Z,2.15
2022-09-15T19:57:24.996Z,2.03
2022-09-15T19:59:52.917Z,1.80
2022-09-15T20:02:20.897Z,2.00
2022-09-15T20:04:50.424Z,2.72
2022-09-15T20:07:18.288Z,2.10
2022-09-15T20:09:47.627Z,2.25
2022-09-15T20:12:16.440Z,1.83
2022-09-15T20:14:44.383Z,2.47
2022-09-15T20:17:12.534Z,1.98
2022-09-15T20:19:42.857Z,2.28
2022-09-15T20:22:10.749Z,2.15
2022-09-15T20:24:38.876Z,2.10
2022-09-15T20:27:09.001Z,2.55
2022-09-15T20:29:37.082Z,2.20
2022-09-15T20:32:05.204Z,2.88
2022-09-15T20:34:33.233Z,1.92
2022-09-15T20:37:03.222Z,2.75
2022-09-15T20:39:31.122Z,2.28
2022-09-15T20:42:00.884Z,2.28
2022-09-15T20:44:31.068Z,2.55
2022-09-15T20:46:59.563Z,2.70
2022-09-15T20:49:27.362Z,2.47
2022-09-15T20:51:55.184Z,2.22
2022-09-15T20:54:23.066Z,2.47
2022-09-15T20:56:50.913Z,2.35
2022-09-15T20:59:18.849Z,1.90
2022-09-15T21:01:46.890Z,2.50
2022-09-15T21:04:15.073Z,2.58
2022-09-15T21:06:45.541Z,2.25
2022-09-15T21:09:14.219Z,1.67
2022-09-15T21:11:43.553Z,2.13
2022-09-15T21:14:15.343Z,2.58
2022-09-15T21:16:43.293Z,2.55
2022-09-15T21:19:12.722Z,2.33
2022-09-15T21:21:41.780Z,2.80
2022-09-15T21:24:10.780Z,2.33
2022-09-15T21:27:02.123Z,2.97
2022-09-15T21:29:48.621Z,2.30
2022-09-15T21:32:25.988Z,2.83
2022-09-15T21:34:56.371Z,2.45
2022-09-15T21:37:27.265Z,2.60
2022-09-15T21:39:55.277Z,2.67
2022-09-15T21:42:23.332Z,2.35
2022-09-15T21:44:52.346Z,2.42
2022-09-15T21:47:20.272Z,2.83
2022-09-15T21:49:48.245Z,2.60
2022-09-15T21:52:16.058Z,2.33
2022-09-15T21:54:44.082Z,2.60
2022-09-15T21:57:11.927Z,2.20
2022-09-15T21:59:39.965Z,2.90
2022-09-15T22:02:07.973Z,2.65
2022-09-15T22:04:35.873Z,2.20
2022-09-15T22:07:04.571Z,2.42
2022-09-15T22:09:32.985Z,2.90
2022-09-15T22:12:01.032Z,2.97
2022-09-15T22:14:28.870Z,2.35
2022-09-15T22:16:56.656Z,2.47
2022-09-15T22:19:24.524Z,2.40
2022-09-15T22:21:52.350Z,2.60
2022-09-15T22:24:20.505Z,2.30
2022-09-15T22:26:48.288Z,2.45
2022-09-15T22:29:16.135Z,2.88
2022-09-15T22:31:44.116Z,2.72
2022-09-15T22:34:12.049Z,2.92
2022-09-15T22:36:40.139Z,2.65
2022-09-15T22:39:07.940Z,2.53
2022-09-15T22:41:38.427Z,2.90
2022-09-15T22:44:16.311Z,2.95
2022-09-15T22:46:44.226Z,2.75
2022-09-15T22:49:12.136Z,2.78
2022-09-15T22:51:39.968Z,2.85
2022-09-15T22:54:07.869Z,2.83
2022-09-15T22:56:35.800Z,2.72
2022-09-15T22:59:03.619Z,2.65
2022-09-15T23:01:31.608Z,3.30
2022-09-15T23:04:01.884Z,2.45
2022-09-15T23:06:32.856Z,2.65
2022-09-15T23:09:03.826Z,2.63
2022-09-15T23:11:33.435Z,2.58
2022-09-15T23:14:01.589Z,2.75
2022-09-15T23:16:30.822Z,2.60
2022-09-15T23:18:59.316Z,2.35
2022-09-15T23:21:28.442Z,2.58
2022-09-15T23:23:56.425Z,2.13
2022-09-15T23:26:25.833Z,2.88
2022-09-15T23:28:54.554Z,2.90
2022-09-15T23:31:22.859Z,2.55
2022-09-15T23:33:50.715Z,2.85
2022-09-15T23:36:22.145Z,2.53
2022-09-15T23:38:50.166Z,2.67
2022-09-15T23:41:21.459Z,2.95
2022-09-15T23:43:49.401Z,2.78
2022-09-15T23:46:17.556Z,2.92
2022-09-15T23:48:45.648Z,2.65
2022-09-15T23:51:13.629Z,2.38
2022-09-15T23:53:41.501Z,2.83
2022-09-15T23:56:09.294Z,2.53
2022-09-15T23:58:37.701Z,2.30
